Latest Coastal Weather Observations for Cape Grim

IDV60701

Issued at 11:31 am EST Friday 26 August 2016 (issued every 10 minutes, with the page automatically refreshed every 10 minutes)

About coastal observations | Map of coastal stations | Coastal observations for VIC | Marine services | Other Formats
Station Details ID: 091331 Name: CAPE GRIM Lat: -40.68 Lon: 144.69 Height: 86.0 m
Data from the previous 72 hours. | See also: Recent months at Cape Grim
Date/Time
EST
Temp
°C
Wind Pressure Rain since
9am
mm
Weather Cloud Vis
km
Sea
Height
m
Swell
Dir  Spd
kts
Gust
kts
hPa Trend Height
m
Period
s
Dir
26/11:30am 10.5 W 16 23 1017.9 - 0.6 - - - - - - -
26/11:00am 10.4 W 16 23 1017.8 - 0.6 - - - - - - -
26/10:30am 10.1 W 12 18 1018.0 - 0.6 - - - - - - -
26/10:00am 9.1 W 14 21 1018.3 - 0.4 - - - - - - -
26/09:30am 8.6 W 15 22 1018.5 - 0.4 - - - - - - -
26/09:21am 8.9 W 15 25 1018.5 - 0.4 - - - - - - -
26/09:00am 9.4 W 14 22 1018.4 - 0.0 - - - - - - -
26/08:30am 9.9 W 13 20 1018.0 - 0.0 - - - - - - -
26/08:00am 9.8 W 13 22 1017.9 - 0.0 - - - - - - -
26/07:30am 9.3 W 14 20 1017.6 - 0.0 - - - - - - -
26/07:00am 9.5 W 13 19 1017.3 - 0.0 - - - - - - -
26/06:30am 9.3 W 15 24 1017.0 - 0.0 - - - - - - -
26/06:00am 9.1 WSW 10 19 1017.0 - 0.0 - - - - - - -
26/05:30am 9.3 WSW 13 25 1016.9 - 0.0 - - - - - - -
26/05:00am 8.7 WSW 14 24 1016.9 - 0.0 - - - - - - -
26/04:30am 9.4 WSW 13 27 1016.7 - 0.0 - - - - - - -
26/04:09am 9.4 WSW 15 25 1016.7 - 0.0 - - - - - - -
26/04:00am 9.6 WSW 13 21 1016.4 - 0.0 - - - - - - -
26/03:30am 9.7 W 14 22 1016.3 - 0.0 - - - - - - -
26/03:00am 9.7 W 16 24 1016.4 - 0.0 - - - - - - -
26/02:34am 9.8 W 14 25 1016.3 - 0.0 - - - - - - -
26/02:30am 9.9 W 14 25 1016.4 - 0.0 - - - - - - -
26/02:00am 8.9 SW 15 26 1016.7 - 0.0 - - - - - - -
26/01:47am 8.7 WSW 15 26 1016.8 - 0.0 - - - - - - -
26/01:30am 9.1 WSW 11 21 1016.8 - 0.0 - - - - - - -
26/01:00am 9.1 SW 19 23 1016.9 - 0.0 - - - - - - -
26/12:30am 9.3 WSW 11 20 1016.8 - 0.0 - - - - - - -
26/12:00am 9.4 SW 12 19 1016.9 - 0.0 - - - - - - -
 
Date/Time
EST
Temp
°C
Wind Pressure Rain since
9am
mm
Weather Cloud Vis
km
Sea
Height
m
Swell
Dir  Spd
kts
Gust
kts
hPa Trend Height
m
Period
s
Dir
25/11:30pm 9.5 SW 14 20 1016.8 - 0.0 - - - - - - -
25/11:00pm 9.3 SW 13 20 1017.0 - 0.0 - - - - - - -
25/10:30pm 9.5 SW 15 21 1017.0 - 0.0 - - - - - - -
25/10:00pm 9.0 SW 17 19 1017.3 - 0.0 - - - - - - -
25/09:30pm 9.2 SW 19 31 1017.2 - 0.0 - - - - - - -
25/09:27pm 9.7 SW 16 26 1017.1 - 0.0 - - - - - - -
25/09:00pm 9.6 SW 18 23 1017.0 - 0.0 - - - - - - -
25/08:30pm 9.4 SW 19 27 1016.9 - 0.0 - - - - - - -
25/08:00pm 9.6 SW 23 27 1016.7 - 0.0 - - - - - - -
25/07:30pm 9.9 SW 20 25 1016.4 - 0.0 - - - - - - -
25/07:00pm 9.9 SW 21 25 1016.1 - 0.0 - - - - - - -
25/06:30pm 9.9 SW 21 26 1015.8 - 0.0 - - - - - - -
25/06:00pm 9.7 SW 19 25 1015.5 - 0.0 - - - - - - -
25/05:30pm 9.9 SW 19 25 1015.2 - 0.0 - - - - - - -
25/05:00pm 10.1 SW 21 26 1014.7 - 0.0 - - - - - - -
25/04:30pm 9.9 SSW 19 25 1014.4 - 0.0 - - - - - - -
25/04:00pm 10.3 SW 17 23 1014.3 - 0.0 - - - - - - -
25/03:40pm 10.5 SSW 16 26 1014.4 - 0.0 - - - - - - -
25/03:30pm 10.4 SSW 17 22 1014.4 - 0.0 - - - - - - -
25/03:00pm 9.9 SW 19 28 1014.2 - 0.0 - - - - - - -
25/02:51pm 10.0 SSW 17 28 1014.2 - 0.0 - - - - - - -
25/02:30pm 10.0 SSW 20 27 1014.0 - 0.0 - - - - - - -
25/02:00pm 10.4 SSW 17 20 1013.8 - 0.0 - - - - - - -
25/01:30pm 9.3 SSW 18 28 1013.8 - 0.0 - - - - - - -
25/01:00pm 9.9 SSW 20 32 1013.7 - 0.0 - - - - - - -
25/12:53pm 10.6 SW 19 32 1013.7 - 0.0 - - - - - - -
25/12:30pm 9.9 SSW 18 26 1013.7 - 0.0 - - - - - - -
25/12:25pm 9.9 SSW 18 28 1013.7 - 0.0 - - - - - - -
25/12:00pm 10.3 SSW 18 24 1013.7 - 0.0 - - - - - - -
25/11:30am 10.3 SSW 18 24 1013.7 - 0.0 - - - - - - -
25/11:00am 10.5 SSW 16 22 1013.7 - 0.0 - - - - - - -
25/10:30am 9.8 SSW 16 23 1013.5 - 0.0 - - - - - - -
25/10:00am 9.8 SSW 13 17 1013.4 - 0.0 - - - - - - -
25/09:30am 9.4 SSW 13 17 1013.3 - 0.0 - - - - - - -
25/09:00am 9.2 SSW 14 18 1013.1 - 2.8 - - - - - - -
25/08:30am 8.5 SSW 13 17 1012.9 - 2.8 - - - - - - -
25/08:00am 8.3 SSW 13 18 1012.7 - 2.8 - - - - - - -
25/07:30am 7.7 SSW 13 18 1012.4 - 2.8 - - - - - - -
25/07:00am 7.6 SSW 13 16 1012.3 - 2.8 - - - - - - -
25/06:30am 7.5 SSW 11 15 1012.1 - 2.8 - - - - - - -
25/06:00am 7.6 SSW 11 14 1011.9 - 2.8 - - - - - - -
25/05:30am 7.3 SSW 11 17 1011.6 - 2.8 - - - - - - -
25/05:00am 6.9 S 9 12 1011.3 - 2.8 - - - - - - -
25/04:30am 7.8 SSW 11 14 1011.0 - 2.8 - - - - - - -
25/04:00am 7.4 S 11 14 1011.0 - 2.8 - - - - - - -
25/03:30am 7.6 S 12 17 1011.1 - 2.8 - - - - - - -
25/03:00am 7.5 SSW 10 15 1011.1 - 2.8 Recent precip. - - - - - -
25/02:39am 7.9 SW 16 22 1011.3 - 2.6 - - - - - - -
25/02:30am 7.9 SSW 9 11 1011.2 - 2.6 - - - - - - -
25/02:00am 7.3 S 9 13 1011.3 - 2.6 - - - - - - -
25/01:30am 8.3 SW 14 20 1011.4 - 2.6 - - - - - - -
25/01:00am 8.1 SW 16 22 1011.4 - 2.6 - - - - - - -
25/12:30am 8.7 SSW 15 20 1011.5 - 2.6 - - - - - - -
25/12:00am 9.2 SW 18 23 1011.6 - 2.6 - - - - - - -
 
Date/Time
EST
Temp
°C
Wind Pressure Rain since
9am
mm
Weather Cloud Vis
km
Sea
Height
m
Swell
Dir  Spd
kts
Gust
kts
hPa Trend Height
m
Period
s
Dir
24/11:30pm 9.3 SW 16 22 1011.5 - 2.6 - - - - - - -
24/11:00pm 8.6 SW 16 23 1011.8 - 2.6 - - - - - - -
24/10:30pm 8.9 SW 17 23 1011.9 - 2.6 - - - - - - -
24/10:00pm 8.3 SW 18 25 1012.2 - 2.6 - - - - - - -
24/09:30pm 8.4 SW 21 28 1012.5 - 2.6 - - - - - - -
24/09:20pm 8.5 SW 15 25 1012.6 - 2.6 - - - - - - -
24/09:00pm 8.2 SW 16 21 1012.8 - 1.8 Recent precip. - - - - - -
24/08:30pm 8.0 SW 20 25 1013.0 - 1.4 - - - - - - -
24/08:00pm 8.9 SW 20 28 1012.8 - 1.2 - - - - - - -
24/07:30pm 9.2 SW 18 25 1012.8 - 1.2 - - - - - - -
24/07:00pm 9.5 SW 18 24 1012.8 - 1.2 - - - - - - -
24/06:30pm 9.7 SW 14 21 1012.7 - 1.2 - - - - - - -
24/06:00pm 8.8 SW 13 21 1012.7 - 1.2 - - - - - - -
24/05:55pm 9.5 SW 15 21 1012.6 - 1.2 - - - - - - -
24/05:30pm 8.4 S 7 10 1012.7 - 1.2 - - - - - - -
24/05:00pm 8.7 SSW 14 19 1012.7 - 1.2 - - - - - - -
24/04:30pm 8.6 SW 14 19 1012.8 - 1.2 - - - - - - -
24/04:00pm 9.7 SW 16 20 1012.8 - 1.0 - - - - - - -
24/03:30pm 9.5 SW 19 25 1012.9 - 1.0 - - - - - - -
24/03:00pm 10.1 SW 18 21 1012.9 - 1.0 - - - - - - -
24/02:30pm 10.5 SW 18 21 1013.0 - 1.0 - - - - - - -
24/02:00pm 10.6 SW 14 19 1013.0 - 1.0 - - - - - - -
24/01:30pm 10.5 SW 11 17 1013.4 - 1.0 - - - - - - -
24/01:00pm 10.4 SW 10 16 1013.9 - 1.0 - - - - - - -
24/12:30pm 9.4 SW 14 16 1014.2 - 1.0 - - - - - - -
24/12:00pm 8.6 WSW 11 22 1014.7 - 1.0 Recent precip. - - - - - -
24/11:30am 8.1 WSW 10 16 1015.1 - 1.0 - - - - - - -
24/11:21am 8.6 WSW 8 16 1015.1 - 0.2 - - - - - - -
24/11:00am 8.9 SW 20 25 1015.2 - 0.0 - - - - - - -
24/10:47am 10.3 SW 15 24 1015.2 - 0.0 - - - - - - -
24/10:30am 10.1 WSW 8 13 1015.3 - 0.0 - - - - - - -
24/10:00am 9.3 SW 11 19 1015.5 - 0.0 - - - - - - -
24/09:30am 10.0 SW 11 14 1015.7 - 0.0 - - - - - - -
24/09:00am 9.6 SW 9 11 1016.0 - - - - - - - - -
24/08:30am 8.9 SW 11 14 1016.0 - - - - - - - - -
24/08:00am 8.5 SW 13 18 1016.0 - - - - - - - - -
24/07:30am 8.4 SW 14 21 1015.9 - - - - - - - - -
24/07:00am 9.2 SW 7 12 1015.9 - 0.2 - - - - - - -
24/06:30am 9.1 WSW 8 14 1015.9 - 0.2 - - - - - - -
24/06:00am 9.3 W 7 14 1015.9 - 0.2 - - - - - - -
24/05:30am 9.4 SW 11 17 1015.7 - 0.2 - - - - - - -
24/05:00am 9.3 SW 12 19 1015.6 - 0.2 - - - - - - -
24/04:30am 9.3 SW 14 21 1015.3 - 0.2 - - - - - - -
24/04:00am 9.2 SW 12 17 1015.5 - 0.2 - - - - - - -
24/03:30am 9.1 SW 16 19 1015.5 - 0.2 - - - - - - -
24/03:00am 9.4 SW 17 21 1015.7 - 0.2 - - - - - - -
24/02:30am 9.4 SW 13 18 1016.0 - 0.2 - - - - - - -
24/02:00am 9.6 SW 15 20 1016.3 - 0.2 - - - - - - -
24/01:30am 9.4 SW 13 19 1016.3 - 0.2 - - - - - - -
24/01:00am 9.4 SW 15 21 1016.4 - 0.2 - - - - - - -
24/12:30am 9.4 SW 13 18 1016.3 - 0.2 - - - - - - -
24/12:00am 8.1 SSW 7 9 1016.6 - 0.2 Recent precip. - - - - - -
 
Date/Time
EST
Temp
°C
Wind Pressure Rain since
9am
mm
Weather Cloud Vis
km
Sea
Height
m
Swell
Dir  Spd
kts
Gust
kts
hPa Trend Height
m
Period
s
Dir
23/11:30pm 8.0 S 8 11 1016.9 - 0.2 - - - - - - -
23/11:00pm 8.5 SW 15 21 1017.2 - 0.0 - - - - - - -
23/10:30pm 7.6 SSW 7 9 1017.4 - 0.0 - - - - - - -
23/10:00pm 7.5 S 7 9 1017.6 - 0.0 - - - - - - -
23/09:30pm 7.8 S 7 9 1017.8 - 0.0 - - - - - - -
23/09:00pm 8.4 S 6 11 1017.6 - 0.0 - - - - - - -
23/08:30pm 8.6 WSW 4 9 1017.4 - 0.0 - - - - - - -
23/08:00pm 8.2 SW 5 8 1017.2 - 0.0 - - - - - - -
23/07:30pm 8.0 SW 9 14 1017.2 - 0.0 - - - - - - -
23/07:00pm 8.4 SW 13 18 1017.2 - 0.0 - - - - - - -
23/06:30pm 8.3 SW 9 12 1017.0 - 0.0 - - - - - - -
23/06:00pm 8.8 SW 19 26 1016.9 - 0.0 - - - - - - -
23/05:53pm 9.6 SW 15 26 1016.8 - 0.0 - - - - - - -
23/05:30pm 9.5 SW 12 15 1016.6 - 0.0 - - - - - - -
23/05:00pm 9.3 SW 13 16 1016.5 - 0.0 - - - - - - -
23/04:30pm 9.9 SSW 11 15 1016.4 - 0.0 - - - - - - -
23/04:00pm 10.2 SW 15 19 1016.2 - 0.0 - - - - - - -
23/03:30pm 10.3 SW 14 17 1016.1 - 0.0 - - - - - - -
23/03:00pm 10.2 SW 14 18 1015.9 - 0.0 - - - - - - -
23/02:30pm 10.4 SSW 14 18 1015.6 - 0.0 - - - - - - -
23/02:00pm 10.9 SSW 12 17 1015.5 - 0.0 - - - - - - -
23/01:30pm 10.9 SW 12 16 1015.6 - 0.0 - - - - - - -
23/01:00pm 10.8 SW 12 17 1015.8 - 0.0 - - - - - - -
23/12:30pm 10.7 SSW 12 16 1016.2 - 0.0 - - - - - - -
23/12:00pm 10.3 SSW 13 19 1016.5 - 0.0 - - - - - - -

Other Formats:

Comma delimited format used in spreadsheet applications
http://www.bom.gov.au/fwo/IDV60701/IDV60701.95954.axf

JavaScript Object Notation format (JSON) in row-major order
http://www.bom.gov.au/fwo/IDV60701/IDV60701.95954.json